Miami, Florida
Traffic Map
Current Weather Conditions
Miami, Florida
Overcast
Overcast
75°
Feels Like: 75°
Wind Chill: 75° Ceiling: 2900
Heat Index: 75° Visibility: 10mi
Dew Point: 63° Wind: 9mph
Humidity: 66% Direction: 20° (NNE)
Pressure: 30.15in Gusts: 17mph
Raw Report DataKMIA 092053Z 02008G15KT 10SM BKN029 BKN090 OVC150 24/17 A3015 RMK AO2 SLP208 T02390172 55002
Traffic Incident Summary
Active as of:
Severity:
Category:
InformationThere was an issue retrieving the traffic information for this location. Please try a different location or try again shortly.
Advertisements
Track Severe Weather on mobile